Time;durP1;ratioP1;P1;durP2;ratioP2;P2;SDS_P1;SDS_P2;PMS_P1;PMS_P2;Temp;Humidity;BMP_temperature;BMP_pressure;BME280_temperature;BME280_humidity;BME280_pressure;Samples;Min_cycle;Max_cycle;Signal;HPM_P1;HPM_P2
2022/04/01 00:00:08;;;;;;;19.95;12.50;;;;;;;;;;5026477;28;20036;-71
2022/04/01 00:02:34;;;;;;;21.58;13.65;;;;;;;;;;5026216;28;20029;-70
2022/04/01 00:05:00;;;;;;;22.10;12.95;;;;;;;;;;5027679;28;20038;-73
2022/04/01 00:07:26;;;;;;;18.45;11.15;;;;;;;;;;5027357;28;20041;-70
2022/04/01 00:09:52;;;;;;;18.58;11.25;;;;;;;;;;5025960;28;20130;-68
2022/04/01 00:12:18;;;;;;;23.27;10.43;;;;;;;;;;5022170;28;20033;-70
2022/04/01 00:14:44;;;;;;;19.73;12.52;;;;;;;;;;5026100;28;20111;-72
2022/04/01 00:17:10;;;;;;;19.13;10.20;;;;;;;;;;5026460;28;20034;-70
2022/04/01 00:19:36;;;;;;;18.05;10.38;;;;;;;;;;5025817;28;20026;-71
2022/04/01 00:22:04;;;;;;;21.80;12.50;;;;;;;;;;5025428;28;20056;-70
2022/04/01 00:24:30;;;;;;;17.33;10.48;;;;;;;;;;5025343;28;20120;-70
2022/04/01 00:26:57;;;;;;;16.60;9.35;;;;;;;;;;5025564;28;20034;-70
2022/04/01 00:29:23;;;;;;;22.13;12.88;;;;;;;;;;5026291;28;20487;-70
2022/04/01 00:31:50;;;;;;;18.25;10.27;;;;;;;;;;5024933;28;20493;-71
2022/04/01 00:34:16;;;;;;;16.08;10.40;;;;;;;;;;5021376;28;20117;-71
2022/04/01 00:36:46;;;;;;;21.60;12.32;;;;;;;;;;5023568;28;20021;-73
2022/04/01 00:39:13;;;;;;;22.92;9.65;;;;;;;;;;5021329;28;20116;-71
2022/04/01 00:41:39;;;;;;;22.60;13.13;;;;;;;;;;5023644;28;20495;-70
2022/04/01 00:44:13;;;;;;;15.65;8.75;;;;;;;;;;5024269;28;20056;-70
2022/04/01 00:46:40;;;;;;;17.92;11.10;;;;;;;;;;5028238;28;20394;-71
2022/04/01 00:49:06;;;;;;;16.10;8.85;;;;;;;;;;5027102;28;20028;-72
2022/04/01 00:51:32;;;;;;;14.65;7.35;;;;;;;;;;5026717;28;20053;-72
2022/04/01 00:53:58;;;;;;;21.77;11.15;;;;;;;;;;5028298;28;20330;-70
2022/04/01 00:56:30;;;;;;;18.20;10.50;;;;;;;;;;5028329;28;20021;-71
2022/04/01 00:58:57;;;;;;;20.55;12.52;;;;;;;;;;5026776;28;20423;-71
2022/04/01 01:01:24;;;;;;;22.80;10.85;;;;;;;;;;5025037;28;20084;-71
2022/04/01 01:03:50;;;;;;;19.23;11.27;;;;;;;;;;5022672;28;20036;-70
2022/04/01 01:06:16;;;;;;;23.83;13.20;;;;;;;;;;5020095;28;20129;-71
2022/04/01 01:08:42;;;;;;;19.48;9.95;;;;;;;;;;5026171;28;20510;-70
2022/04/01 01:11:09;;;;;;;24.58;12.27;;;;;;;;;;5026922;28;20045;-69
2022/04/01 01:13:35;;;;;;;19.02;10.40;;;;;;;;;;5025860;28;20047;-71
2022/04/01 01:16:01;;;;;;;15.07;8.10;;;;;;;;;;5026432;28;20029;-71
2022/04/01 01:18:27;;;;;;;23.58;12.75;;;;;;;;;;5025939;28;20595;-70
2022/04/01 01:20:54;;;;;;;19.65;9.95;;;;;;;;;;5027054;28;20091;-69
2022/04/01 01:23:20;;;;;;;24.33;11.27;;;;;;;;;;5025695;28;20261;-69
2022/04/01 01:25:46;;;;;;;17.15;9.05;;;;;;;;;;5021820;28;20075;-70
2022/04/01 01:28:12;;;;;;;23.13;11.23;;;;;;;;;;5023194;28;20471;-69
2022/04/01 01:30:39;;;;;;;19.85;10.48;;;;;;;;;;5026899;28;20025;-71
2022/04/01 01:33:05;;;;;;;23.88;13.10;;;;;;;;;;5027190;28;20030;-70
2022/04/01 01:35:32;;;;;;;21.80;12.18;;;;;;;;;;5026533;28;20033;-72
2022/04/01 01:37:58;;;;;;;26.75;13.05;;;;;;;;;;5024048;28;20391;-71
2022/04/01 01:40:24;;;;;;;24.23;12.80;;;;;;;;;;5024598;28;20037;-72
2022/04/01 01:42:50;;;;;;;19.90;11.93;;;;;;;;;;5026812;28;20053;-70
2022/04/01 01:45:17;;;;;;;23.92;13.95;;;;;;;;;;5029359;28;20070;-70
2022/04/01 01:47:43;;;;;;;26.10;14.15;;;;;;;;;;5028713;28;20138;-69
2022/04/01 01:55:48;;;;;;;28.55;12.70;;;;;;;;;;5012859;28;20029;-70
2022/04/01 01:58:15;;;;;;;30.90;13.10;;;;;;;;;;5030200;28;20044;-70
2022/04/01 02:00:42;;;;;;;18.42;10.40;;;;;;;;;;5028265;28;20029;-69
2022/04/01 02:03:10;;;;;;;20.80;12.32;;;;;;;;;;5028375;28;20478;-69
2022/04/01 02:05:36;;;;;;;23.70;12.00;;;;;;;;;;5028528;28;20558;-69
2022/04/01 02:08:05;;;;;;;24.45;13.38;;;;;;;;;;5028786;28;20081;-71
2022/04/01 02:10:31;;;;;;;31.92;15.07;;;;;;;;;;5026198;28;20111;-69
2022/04/01 02:12:58;;;;;;;27.27;12.52;;;;;;;;;;5026141;28;20038;-71
2022/04/01 02:15:24;;;;;;;21.40;11.35;;;;;;;;;;5026283;28;20033;-70
2022/04/01 02:17:50;;;;;;;30.33;14.38;;;;;;;;;;5028841;28;20048;-68
2022/04/01 02:20:16;;;;;;;20.85;11.60;;;;;;;;;;5027665;28;20037;-69
2022/04/01 02:22:43;;;;;;;19.48;10.85;;;;;;;;;;5027658;28;20483;-69
2022/04/01 02:25:11;;;;;;;30.42;13.82;;;;;;;;;;5027143;28;20056;-68
2022/04/01 02:27:37;;;;;;;25.17;13.88;;;;;;;;;;5029940;28;20381;-68
2022/04/01 02:30:10;;;;;;;24.25;13.27;;;;;;;;;;5025059;28;20025;-69
2022/04/01 02:32:36;;;;;;;30.52;14.88;;;;;;;;;;5028960;28;20056;-69
2022/04/01 02:35:04;;;;;;;29.45;13.40;;;;;;;;;;5027731;28;20123;-70
2022/04/01 02:37:30;;;;;;;24.30;13.00;;;;;;;;;;5029247;28;20022;-70
2022/04/01 02:39:56;;;;;;;23.90;12.25;;;;;;;;;;5028384;28;20041;-68
2022/04/01 02:42:22;;;;;;;26.70;13.40;;;;;;;;;;5025518;28;20025;-71
2022/04/01 02:44:48;;;;;;;26.33;14.48;;;;;;;;;;5026860;28;20029;-68
2022/04/01 02:47:14;;;;;;;25.17;13.15;;;;;;;;;;5026423;28;20545;-70
2022/04/01 02:49:41;;;;;;;16.02;9.63;;;;;;;;;;5027140;28;20432;-70
2022/04/01 02:52:07;;;;;;;26.67;14.18;;;;;;;;;;5027120;28;20069;-69
2022/04/01 02:54:36;;;;;;;25.65;13.15;;;;;;;;;;5028845;28;20269;-68
2022/04/01 02:57:02;;;;;;;27.48;12.38;;;;;;;;;;5027525;28;20402;-70
2022/04/01 02:59:29;;;;;;;24.02;11.23;;;;;;;;;;5026219;28;20576;-69
2022/04/01 03:01:55;;;;;;;29.23;12.73;;;;;;;;;;5027189;28;20017;-69
2022/04/01 03:04:21;;;;;;;28.65;13.13;;;;;;;;;;5027492;28;20056;-70
2022/04/01 03:06:47;;;;;;;22.05;10.25;;;;;;;;;;5028964;28;20030;-72
2022/04/01 03:09:14;;;;;;;26.15;15.30;;;;;;;;;;5027509;28;20036;-70
2022/04/01 03:11:40;;;;;;;24.02;11.25;;;;;;;;;;5028841;28;20021;-68
2022/04/01 03:14:08;;;;;;;25.13;13.10;;;;;;;;;;5028899;28;20021;-68
2022/04/01 03:16:34;;;;;;;27.58;13.40;;;;;;;;;;5030042;28;20037;-70
2022/04/01 03:19:01;;;;;;;27.27;14.18;;;;;;;;;;5028929;28;20112;-69
2022/04/01 03:21:29;;;;;;;22.77;12.95;;;;;;;;;;5029138;28;20030;-70
2022/04/01 03:23:55;;;;;;;20.65;12.52;;;;;;;;;;5027897;28;20154;-70
2022/04/01 03:26:21;;;;;;;20.75;10.63;;;;;;;;;;5029442;28;20025;-71
2022/04/01 03:28:48;;;;;;;21.50;11.45;;;;;;;;;;5028033;28;20675;-71
2022/04/01 03:31:14;;;;;;;20.00;11.02;;;;;;;;;;5023423;28;20033;-70
2022/04/01 03:33:43;;;;;;;13.73;7.90;;;;;;;;;;5029099;28;20108;-69
2022/04/01 03:36:10;;;;;;;23.27;11.73;;;;;;;;;;5028402;28;20490;-68
2022/04/01 03:38:36;;;;;;;20.95;10.90;;;;;;;;;;5029312;28;20053;-71
2022/04/01 03:41:05;;;;;;;20.67;10.10;;;;;;;;;;5022002;28;20044;-68
2022/04/01 03:43:34;;;;;;;20.67;10.05;;;;;;;;;;5025807;28;20021;-69
2022/04/01 03:46:05;;;;;;;20.85;11.93;;;;;;;;;;5023883;28;20496;-69
2022/04/01 03:48:31;;;;;;;;;;;;;;;;;;5027366;28;20029;-68
2022/04/01 03:50:58;;;;;;;21.27;11.65;;;;;;;;;;5027421;28;19916;-69
2022/04/01 03:53:28;;;;;;;19.98;10.85;;;;;;;;;;5027829;28;20471;-69
2022/04/01 03:55:56;;;;;;;19.55;9.27;;;;;;;;;;5025634;28;20037;-69
2022/04/01 03:58:32;;;;;;;18.00;10.57;;;;;;;;;;5024736;28;20367;-69
2022/04/01 04:01:00;;;;;;;15.73;9.32;;;;;;;;;;5027741;28;20060;-68
2022/04/01 04:03:26;;;;;;;17.70;9.35;;;;;;;;;;5027191;28;20037;-72
2022/04/01 04:05:53;;;;;;;19.42;10.27;;;;;;;;;;5027149;28;20045;-68
2022/04/01 04:08:20;;;;;;;19.23;9.90;;;;;;;;;;5026151;28;20029;-69
2022/04/01 04:10:48;;;;;;;18.60;10.52;;;;;;;;;;5025593;28;20037;-68
2022/04/01 04:13:15;;;;;;;15.45;9.93;;;;;;;;;;5024862;28;20025;-68
2022/04/01 04:15:51;;;;;;;16.92;10.10;;;;;;;;;;5027021;28;20087;-68
2022/04/01 04:18:19;;;;;;;18.70;10.60;;;;;;;;;;5024804;28;20048;-68
2022/04/01 04:21:04;;;;;;;22.75;10.63;;;;;;;;;;5023645;28;20039;-68
2022/04/01 04:23:35;;;;;;;23.63;10.15;;;;;;;;;;5022248;28;20025;-69
2022/04/01 04:26:11;;;;;;;19.33;9.27;;;;;;;;;;5026799;28;20033;-68
2022/04/01 04:28:38;;;;;;;18.63;10.98;;;;;;;;;;5025867;28;20025;-68
2022/04/01 04:31:07;;;;;;;19.02;8.32;;;;;;;;;;5026467;28;20029;-70
2022/04/01 04:33:33;;;;;;;24.45;11.38;;;;;;;;;;5025311;28;20029;-69
2022/04/01 04:36:04;;;;;;;18.48;10.75;;;;;;;;;;5026860;28;20056;-69
2022/04/01 04:38:39;;;;;;;16.45;9.70;;;;;;;;;;5027236;28;20026;-70
2022/04/01 04:41:08;;;;;;;21.23;10.43;;;;;;;;;;5025063;28;20033;-69
2022/04/01 04:43:38;;;;;;;17.67;9.60;;;;;;;;;;5025822;28;20021;-69
2022/04/01 04:46:08;;;;;;;17.80;9.63;;;;;;;;;;5027613;28;20033;-68
2022/04/01 04:48:35;;;;;;;15.55;8.43;;;;;;;;;;5026299;28;20025;-70
2022/04/01 04:51:02;;;;;;;17.85;10.10;;;;;;;;;;5027610;28;20049;-71
2022/04/01 04:53:30;;;;;;;17.42;9.70;;;;;;;;;;5020517;28;20512;-68
2022/04/01 04:55:59;;;;;;;19.65;9.73;;;;;;;;;;5025875;28;20026;-68
2022/04/01 04:58:30;;;;;;;20.60;10.27;;;;;;;;;;5027502;28;20092;-68
2022/04/01 05:01:00;;;;;;;15.43;8.50;;;;;;;;;;5027361;28;20030;-70
2022/04/01 05:03:40;;;;;;;16.58;8.43;;;;;;;;;;5026951;28;20040;-68
2022/04/01 05:06:08;;;;;;;17.13;8.98;;;;;;;;;;5026799;28;20025;-71
2022/04/01 05:08:50;;;;;;;17.85;9.00;;;;;;;;;;5026195;28;20029;-69
2022/04/01 05:11:18;;;;;;;13.75;8.38;;;;;;;;;;5026196;28;20029;-66
2022/04/01 05:14:01;;;;;;;17.83;7.68;;;;;;;;;;5024887;28;20100;-68
2022/04/01 05:16:27;;;;;;;16.92;8.40;;;;;;;;;;5027487;28;20029;-68
2022/04/01 05:19:03;;;;;;;12.70;6.88;;;;;;;;;;5029310;28;20030;-68
2022/04/01 05:21:31;;;;;;;12.80;7.43;;;;;;;;;;5031440;28;20029;-69
2022/04/01 05:23:58;;;;;;;13.95;6.85;;;;;;;;;;5030920;28;20108;-71
2022/04/01 05:26:38;;;;;;;13.38;6.95;;;;;;;;;;5030573;28;20029;-69
2022/04/01 05:29:07;;;;;;;10.85;5.22;;;;;;;;;;5028562;28;20052;-68
2022/04/01 05:31:37;;;;;;;14.32;7.90;;;;;;;;;;5030033;28;20025;-70
2022/04/01 05:34:13;;;;;;;12.93;6.70;;;;;;;;;;5028630;28;20030;-69
2022/04/01 05:36:40;;;;;;;13.18;6.60;;;;;;;;;;5030740;28;20033;-68
2022/04/01 05:39:06;;;;;;;14.30;5.90;;;;;;;;;;5025464;28;20048;-69
2022/04/01 05:41:32;;;;;;;10.98;5.93;;;;;;;;;;5027559;28;20037;-70
2022/04/01 05:43:58;;;;;;;15.10;6.63;;;;;;;;;;5029692;28;20029;-69
2022/04/01 05:46:25;;;;;;;9.48;5.95;;;;;;;;;;5026723;28;20129;-67
2022/04/01 05:48:53;;;;;;;11.68;6.18;;;;;;;;;;5029582;28;20112;-68
2022/04/01 05:51:19;;;;;;;17.90;5.82;;;;;;;;;;5028591;28;20172;-67
2022/04/01 05:53:47;;;;;;;13.30;4.80;;;;;;;;;;5028647;28;20066;-67
2022/04/01 05:56:14;;;;;;;13.27;6.50;;;;;;;;;;5030242;28;20021;-68
2022/04/01 05:58:40;;;;;;;13.25;5.15;;;;;;;;;;5028411;28;20034;-68
2022/04/01 06:01:16;;;;;;;9.65;4.78;;;;;;;;;;5022857;28;20036;-69
2022/04/01 06:03:54;;;;;;;9.15;5.80;;;;;;;;;;5027654;28;20048;-67
2022/04/01 06:06:31;;;;;;;11.75;5.80;;;;;;;;;;5028101;28;20097;-67
2022/04/01 06:09:24;;;;;;;10.88;5.65;;;;;;;;;;5025803;28;20036;-69
2022/04/01 06:11:56;;;;;;;12.10;5.93;;;;;;;;;;5028701;28;20033;-68
2022/04/01 06:14:40;;;;;;;11.38;5.53;;;;;;;;;;5027936;28;20037;-68
2022/04/01 06:17:29;;;;;;;15.80;7.03;;;;;;;;;;5022943;28;20045;-67
2022/04/01 06:19:57;;;;;;;11.57;5.78;;;;;;;;;;5009253;28;20407;-70
2022/04/01 06:22:25;;;;;;;8.27;5.18;;;;;;;;;;5028935;28;20029;-67
2022/04/01 06:25:02;;;;;;;15.60;5.85;;;;;;;;;;5030375;28;20546;-67
2022/04/01 06:27:34;;;;;;;10.73;5.57;;;;;;;;;;5028689;28;20525;-69
2022/04/01 06:30:11;;;;;;;21.13;6.18;;;;;;;;;;5025885;28;20112;-68
2022/04/01 06:32:37;;;;;;;10.05;5.63;;;;;;;;;;5028192;28;20025;-68
2022/04/01 06:35:18;;;;;;;12.15;5.25;;;;;;;;;;5028406;28;20474;-68
2022/04/01 06:37:50;;;;;;;12.30;5.28;;;;;;;;;;5026327;28;20084;-68
2022/04/01 06:40:17;;;;;;;9.68;5.05;;;;;;;;;;5026561;28;20485;-67
2022/04/01 06:42:45;;;;;;;8.40;4.80;;;;;;;;;;5028322;28;20025;-67
2022/04/01 06:45:13;;;;;;;10.38;4.72;;;;;;;;;;5028477;28;20022;-68
2022/04/01 06:47:40;;;;;;;10.63;4.65;;;;;;;;;;5027704;28;20038;-68
2022/04/01 06:50:06;;;;;;;8.05;4.05;;;;;;;;;;5027805;28;20040;-67
2022/04/01 06:52:33;;;;;;;10.35;4.15;;;;;;;;;;5028720;28;20049;-68
2022/04/01 06:55:00;;;;;;;9.77;4.85;;;;;;;;;;5028403;28;20041;-68
2022/04/01 06:57:26;;;;;;;13.13;4.47;;;;;;;;;;5028289;28;20188;-69
2022/04/01 06:59:52;;;;;;;7.15;4.05;;;;;;;;;;5027679;28;20049;-68
2022/04/01 07:02:18;;;;;;;8.05;3.85;;;;;;;;;;5026562;28;20102;-69
2022/04/01 07:04:44;;;;;;;8.77;3.60;;;;;;;;;;5024467;28;20037;-68
2022/04/01 07:07:10;;;;;;;7.82;4.05;;;;;;;;;;5024799;28;20030;-66
2022/04/01 07:09:36;;;;;;;8.82;3.50;;;;;;;;;;5024841;28;20022;-68
2022/04/01 07:12:03;;;;;;;7.75;3.60;;;;;;;;;;5027201;28;20049;-67
2022/04/01 07:14:31;;;;;;;9.68;3.78;;;;;;;;;;5030105;28;20606;-69
2022/04/01 07:16:58;;;;;;;11.73;4.72;;;;;;;;;;5028681;28;20064;-69
2022/04/01 07:19:24;;;;;;;10.05;3.22;;;;;;;;;;5028974;28;20052;-68
2022/04/01 07:21:50;;;;;;;9.95;3.15;;;;;;;;;;5023508;28;20033;-67
2022/04/01 07:24:16;;;;;;;7.88;2.72;;;;;;;;;;5026285;28;20037;-67
2022/04/01 07:26:44;;;;;;;12.18;3.20;;;;;;;;;;5025299;28;20079;-69
2022/04/01 07:29:10;;;;;;;7.00;2.58;;;;;;;;;;5028928;28;20108;-67
2022/04/01 07:34:37;;;;;;;;;;;;;;;;;;5025120;28;20036;-68
2022/04/01 07:37:04;;;;;;;7.38;2.95;;;;;;;;;;5042281;28;20286;-68
2022/04/01 07:39:31;;;;;;;5.78;3.35;;;;;;;;;;5026487;28;20021;-69
2022/04/01 07:41:57;;;;;;;11.38;3.83;;;;;;;;;;5023860;28;20052;-69
2022/04/01 07:44:23;;;;;;;3.95;2.00;;;;;;;;;;5028463;28;20051;-68
2022/04/01 07:46:52;;;;;;;5.93;1.98;;;;;;;;;;5024914;28;20030;-68
2022/04/01 07:49:19;;;;;;;5.60;2.35;;;;;;;;;;5022354;28;20037;-71
2022/04/01 07:51:45;;;;;;;3.65;2.13;;;;;;;;;;5023859;28;20137;-68
2022/04/01 07:54:11;;;;;;;10.02;2.95;;;;;;;;;;5026626;28;20479;-69
2022/04/01 07:56:40;;;;;;;4.75;2.53;;;;;;;;;;5026491;28;20075;-70
2022/04/01 07:59:06;;;;;;;4.82;2.45;;;;;;;;;;5023726;28;20116;-70
2022/04/01 08:01:32;;;;;;;5.72;2.72;;;;;;;;;;5025528;28;20031;-70
2022/04/01 08:03:58;;;;;;;4.47;2.55;;;;;;;;;;5027343;28;20037;-70
2022/04/01 08:06:24;;;;;;;9.20;2.47;;;;;;;;;;5027988;28;20033;-71
2022/04/01 08:08:50;;;;;;;7.25;2.30;;;;;;;;;;5027276;28;20038;-69
2022/04/01 08:11:16;;;;;;;5.35;2.25;;;;;;;;;;5026990;28;20044;-71
2022/04/01 08:13:42;;;;;;;6.25;2.20;;;;;;;;;;5026062;28;20045;-72
2022/04/01 08:16:10;;;;;;;5.20;2.13;;;;;;;;;;5024661;28;20026;-70
2022/04/01 08:18:36;;;;;;;4.75;2.15;;;;;;;;;;5027506;28;20025;-70
2022/04/01 08:21:03;;;;;;;4.63;2.45;;;;;;;;;;5027749;28;20029;-69
2022/04/01 08:23:34;;;;;;;7.70;2.35;;;;;;;;;;5026074;28;20068;-70
2022/04/01 08:26:00;;;;;;;7.70;2.03;;;;;;;;;;5025042;28;20035;-71
2022/04/01 08:28:26;;;;;;;7.72;2.30;;;;;;;;;;5024896;28;20053;-72
2022/04/01 08:30:52;;;;;;;6.80;2.13;;;;;;;;;;5025235;28;20107;-72
2022/04/01 08:33:20;;;;;;;9.82;2.60;;;;;;;;;;5026856;28;20390;-73
2022/04/01 08:35:46;;;;;;;9.57;2.35;;;;;;;;;;5026200;28;20029;-72
2022/04/01 08:38:12;;;;;;;8.55;2.28;;;;;;;;;;5023956;28;20103;-70
2022/04/01 08:40:38;;;;;;;5.03;2.17;;;;;;;;;;5027231;28;20044;-72
2022/04/01 08:43:05;;;;;;;6.72;2.05;;;;;;;;;;5026291;28;20025;-74
2022/04/01 08:45:35;;;;;;;5.22;2.45;;;;;;;;;;5026381;28;20025;-72
2022/04/01 08:48:02;;;;;;;6.55;2.45;;;;;;;;;;5023604;28;20132;-72
2022/04/01 08:50:28;;;;;;;8.38;2.47;;;;;;;;;;5027290;28;20483;-72
2022/04/01 08:52:54;;;;;;;10.02;2.47;;;;;;;;;;5026025;28;20045;-72
2022/04/01 08:55:20;;;;;;;6.13;2.85;;;;;;;;;;5021699;28;20099;-74
2022/04/01 08:57:46;;;;;;;8.40;2.95;;;;;;;;;;5023058;28;20034;-71
2022/04/01 09:00:12;;;;;;;6.00;2.08;;;;;;;;;;5022209;28;20030;-73
2022/04/01 09:02:38;;;;;;;5.18;2.33;;;;;;;;;;5026446;28;20493;-73
2022/04/01 09:05:05;;;;;;;5.47;2.75;;;;;;;;;;5026722;28;20026;-73
2022/04/01 09:07:31;;;;;;;7.25;2.80;;;;;;;;;;5025660;28;20029;-74
2022/04/01 09:10:04;;;;;;;4.60;2.00;;;;;;;;;;5015024;28;20399;-73
2022/04/01 09:12:31;;;;;;;5.63;2.20;;;;;;;;;;5022764;28;20068;-74
2022/04/01 09:14:57;;;;;;;5.10;2.33;;;;;;;;;;5023829;28;20037;-72
2022/04/01 09:17:39;;;;;;;4.78;2.55;;;;;;;;;;5021065;28;20021;-70
2022/04/01 09:20:09;;;;;;;6.22;2.40;;;;;;;;;;5025240;28;20034;-69
2022/04/01 09:22:36;;;;;;;6.93;2.33;;;;;;;;;;5024309;28;20033;-70
2022/04/01 09:25:04;;;;;;;4.85;2.70;;;;;;;;;;5024881;28;20038;-69
2022/04/01 09:27:37;;;;;;;4.88;1.98;;;;;;;;;;5025464;28;20017;-68
2022/04/01 09:30:04;;;;;;;8.98;2.15;;;;;;;;;;5025183;28;20853;-71
2022/04/01 09:32:41;;;;;;;8.38;2.63;;;;;;;;;;5027006;28;20032;-72
2022/04/01 09:35:10;;;;;;;6.80;2.60;;;;;;;;;;5016325;28;20098;-71
2022/04/01 09:37:46;;;;;;;6.72;2.90;;;;;;;;;;5022575;28;20032;-72
2022/04/01 09:40:21;;;;;;;5.95;2.42;;;;;;;;;;5025677;28;20053;-71
2022/04/01 09:42:54;;;;;;;5.32;2.50;;;;;;;;;;5023442;28;20018;-71
2022/04/01 09:45:31;;;;;;;5.35;2.38;;;;;;;;;;5021846;28;20037;-72
2022/04/01 09:48:10;;;;;;;6.05;2.50;;;;;;;;;;5021131;28;20080;-72
2022/04/01 09:50:40;;;;;;;5.53;2.58;;;;;;;;;;5023736;28;20026;-73
2022/04/01 09:53:28;;;;;;;9.10;2.60;;;;;;;;;;5024798;28;20049;-73
2022/04/01 09:55:54;;;;;;;4.50;2.42;;;;;;;;;;5026082;28;20033;-72
2022/04/01 09:58:21;;;;;;;3.42;2.15;;;;;;;;;;5025067;28;20034;-73
2022/04/01 10:00:47;;;;;;;5.43;2.53;;;;;;;;;;5022266;28;20037;-72
2022/04/01 10:03:15;;;;;;;5.30;2.30;;;;;;;;;;5025017;28;20029;-73
2022/04/01 10:05:41;;;;;;;6.22;2.13;;;;;;;;;;5028197;28;20108;-72
2022/04/01 10:08:08;;;;;;;4.82;2.20;;;;;;;;;;5029203;28;20029;-72
2022/04/01 10:10:35;;;;;;;3.45;2.03;;;;;;;;;;5029678;28;20045;-73
2022/04/01 10:13:11;;;;;;;4.97;1.80;;;;;;;;;;5028647;28;20025;-72
2022/04/01 10:15:38;;;;;;;2.95;1.70;;;;;;;;;;5028851;28;20022;-72
2022/04/01 10:18:05;;;;;;;10.15;4.10;;;;;;;;;;5028171;28;20462;-71
2022/04/01 10:20:39;;;;;;;5.53;2.83;;;;;;;;;;5026423;28;20124;-73
2022/04/01 10:23:06;;;;;;;5.75;2.55;;;;;;;;;;5029706;28;20105;-72
2022/04/01 10:25:36;;;;;;;3.80;1.88;;;;;;;;;;5025709;28;20033;-70
2022/04/01 10:28:03;;;;;;;3.72;2.10;;;;;;;;;;5022882;28;20064;-72
2022/04/01 10:30:31;;;;;;;4.93;2.03;;;;;;;;;;5027430;28;20067;-72
2022/04/01 10:32:58;;;;;;;5.55;2.20;;;;;;;;;;5028875;28;20017;-72
2022/04/01 10:35:28;;;;;;;3.53;2.05;;;;;;;;;;5029994;28;20083;-72
2022/04/01 10:38:06;;;;;;;6.07;2.47;;;;;;;;;;5026769;28;20348;-71
2022/04/01 10:40:38;;;;;;;5.63;2.72;;;;;;;;;;5027163;28;20040;-73
2022/04/01 10:43:10;;;;;;;5.65;3.10;;;;;;;;;;5027611;28;20072;-73
2022/04/01 10:45:38;;;;;;;5.80;2.40;;;;;;;;;;5027866;28;20710;-71
2022/04/01 10:53:58;;;;;;;6.15;3.53;;;;;;;;;;5027583;28;20102;-71
2022/04/01 10:56:24;;;;;;;8.18;3.10;;;;;;;;;;5026374;28;20064;-72
2022/04/01 10:59:07;;;;;;;6.50;3.38;;;;;;;;;;5027533;28;20033;-72
2022/04/01 11:01:34;;;;;;;6.57;3.30;;;;;;;;;;5024434;28;20091;-71
2022/04/01 11:04:12;;;;;;;6.53;2.80;;;;;;;;;;5027887;28;20112;-72
2022/04/01 11:06:51;;;;;;;6.18;3.42;;;;;;;;;;5026878;28;20111;-72
2022/04/01 11:09:35;;;;;;;5.88;3.20;;;;;;;;;;5026331;28;20060;-72
2022/04/01 11:12:17;;;;;;;5.40;3.00;;;;;;;;;;5026002;28;20025;-73
2022/04/01 11:14:55;;;;;;;5.95;3.38;;;;;;;;;;5026674;28;20040;-73
2022/04/01 11:17:22;;;;;;;6.82;4.15;;;;;;;;;;5021338;28;20089;-74
2022/04/01 11:20:01;;;;;;;6.30;4.05;;;;;;;;;;5027472;28;20032;-73
2022/04/01 11:22:43;;;;;;;5.82;4.07;;;;;;;;;;5025869;28;20033;-72
2022/04/01 11:25:12;;;;;;;7.07;3.78;;;;;;;;;;5027490;28;20025;-74
2022/04/01 11:27:43;;;;;;;13.52;5.18;;;;;;;;;;5025537;28;20052;-73
2022/04/01 11:30:13;;;;;;;10.35;4.78;;;;;;;;;;5027737;28;20025;-72
2022/04/01 11:32:40;;;;;;;7.68;4.50;;;;;;;;;;5029382;28;20034;-71
2022/04/01 11:35:07;;;;;;;6.05;4.25;;;;;;;;;;5027405;28;20116;-72
2022/04/01 11:37:37;;;;;;;6.85;4.47;;;;;;;;;;5028061;28;20121;-72
2022/04/01 11:40:11;;;;;;;9.13;5.18;;;;;;;;;;5027968;28;20025;-72
2022/04/01 11:42:52;;;;;;;9.10;5.50;;;;;;;;;;5024877;28;20037;-72
2022/04/01 11:45:18;;;;;;;7.18;5.07;;;;;;;;;;5027352;28;20036;-72
2022/04/01 11:47:45;;;;;;;10.82;5.32;;;;;;;;;;5027883;28;20116;-73
2022/04/01 11:50:13;;;;;;;10.40;5.95;;;;;;;;;;5026444;28;20451;-72
2022/04/01 11:52:43;;;;;;;8.82;5.90;;;;;;;;;;5028515;28;20053;-72
2022/04/01 11:55:13;;;;;;;8.95;5.75;;;;;;;;;;5026208;28;20025;-70
2022/04/01 11:57:40;;;;;;;15.38;4.75;;;;;;;;;;5027710;28;20103;-72
2022/04/01 12:00:10;;;;;;;7.97;5.47;;;;;;;;;;5027510;28;20032;-73
2022/04/01 12:02:37;;;;;;;13.10;6.73;;;;;;;;;;5029045;28;20025;-70
2022/04/01 12:05:03;;;;;;;11.43;6.88;;;;;;;;;;5029173;28;20128;-70
2022/04/01 12:10:20;;;;;;;10.07;6.00;;;;;;;;;;5026261;28;20426;-71
2022/04/01 12:12:55;;;;;;;12.15;6.13;;;;;;;;;;5011214;28;20057;-71
2022/04/01 12:15:31;;;;;;;11.40;6.03;;;;;;;;;;5023954;28;20457;-72
2022/04/01 12:17:57;;;;;;;7.90;5.25;;;;;;;;;;5026632;28;20025;-71
2022/04/01 12:20:23;;;;;;;8.32;5.55;;;;;;;;;;5029411;28;20030;-73
2022/04/01 12:22:52;;;;;;;9.23;5.57;;;;;;;;;;5025138;28;20040;-70
2022/04/01 12:25:19;;;;;;;10.27;5.53;;;;;;;;;;5024176;28;20483;-71
2022/04/01 12:27:58;;;;;;;12.32;6.03;;;;;;;;;;5026921;28;20459;-73
2022/04/01 12:30:44;;;;;;;8.38;5.47;;;;;;;;;;5028804;28;20417;-72
2022/04/01 12:33:11;;;;;;;10.00;5.75;;;;;;;;;;5017945;28;20104;-73
2022/04/01 12:35:49;;;;;;;8.65;5.55;;;;;;;;;;5028471;28;20053;-73
2022/04/01 12:38:15;;;;;;;11.18;5.55;;;;;;;;;;5027574;28;20046;-74
2022/04/01 12:40:44;;;;;;;8.32;5.45;;;;;;;;;;5028930;28;20061;-73
2022/04/01 12:43:30;;;;;;;13.68;4.63;;;;;;;;;;5026961;28;20441;-73
2022/04/01 12:46:00;;;;;;;7.78;4.90;;;;;;;;;;5027738;28;20034;-74
2022/04/01 12:48:26;;;;;;;7.97;4.87;;;;;;;;;;5028878;28;20022;-72
2022/04/01 12:50:55;;;;;;;7.03;4.68;;;;;;;;;;5028484;28;20065;-72
2022/04/01 12:53:21;;;;;;;8.32;5.40;;;;;;;;;;5026236;28;20041;-73
2022/04/01 12:55:47;;;;;;;9.07;4.80;;;;;;;;;;5025936;28;20091;-72
2022/04/01 12:58:14;;;;;;;8.23;4.00;;;;;;;;;;5027580;28;20133;-76
2022/04/01 13:00:40;;;;;;;7.00;4.00;;;;;;;;;;5028171;28;20029;-73
2022/04/01 13:03:08;;;;;;;5.75;2.78;;;;;;;;;;5028007;28;20033;-73
2022/04/01 13:05:34;;;;;;;7.40;3.63;;;;;;;;;;5026634;28;20026;-74
2022/04/01 13:08:00;;;;;;;5.22;3.45;;;;;;;;;;5027462;28;20136;-74
2022/04/01 13:10:27;;;;;;;8.13;5.38;;;;;;;;;;5025835;28;20033;-74
2022/04/01 13:12:55;;;;;;;8.25;4.00;;;;;;;;;;5027967;28;20029;-73
2022/04/01 13:15:24;;;;;;;7.13;4.07;;;;;;;;;;5025593;28;20045;-74
2022/04/01 13:17:50;;;;;;;7.05;3.83;;;;;;;;;;5026707;28;20489;-75
2022/04/01 13:20:17;;;;;;;14.45;6.10;;;;;;;;;;5025893;28;20045;-76
2022/04/01 13:22:44;;;;;;;6.82;3.88;;;;;;;;;;5026279;28;20117;-74
2022/04/01 13:25:12;;;;;;;6.78;3.63;;;;;;;;;;5026146;28;20081;-74
2022/04/01 13:27:39;;;;;;;4.90;3.45;;;;;;;;;;5027351;28;20038;-76
2022/04/01 13:30:07;;;;;;;6.78;2.97;;;;;;;;;;5024991;28;20034;-75
2022/04/01 13:32:33;;;;;;;5.50;3.30;;;;;;;;;;5024445;28;20038;-75
2022/04/01 13:34:59;;;;;;;6.70;2.88;;;;;;;;;;5025987;28;20086;-74
2022/04/01 13:37:25;;;;;;;8.35;3.50;;;;;;;;;;5027495;28;20041;-74
2022/04/01 13:39:51;;;;;;;5.97;3.53;;;;;;;;;;5029238;28;20097;-75
2022/04/01 13:42:19;;;;;;;6.47;2.90;;;;;;;;;;5031328;28;20061;-75
2022/04/01 13:44:45;;;;;;;4.50;2.65;;;;;;;;;;5019284;28;20034;-74
2022/04/01 13:47:11;;;;;;;5.70;2.40;;;;;;;;;;5021561;28;20491;-74
2022/04/01 13:49:38;;;;;;;9.10;2.92;;;;;;;;;;5028002;28;20423;-73
2022/04/01 13:52:04;;;;;;;20.52;9.27;;;;;;;;;;5023626;28;20095;-73
2022/04/01 13:54:30;;;;;;;39.25;10.88;;;;;;;;;;5023607;28;20136;-75
2022/04/01 13:56:58;;;;;;;70.20;20.00;;;;;;;;;;5024901;28;20025;-73
2022/04/01 13:59:26;;;;;;;27.90;8.18;;;;;;;;;;5026923;28;20025;-75
2022/04/01 14:01:52;;;;;;;12.57;5.20;;;;;;;;;;5019603;28;20049;-74
2022/04/01 14:04:20;;;;;;;5.57;2.97;;;;;;;;;;5009167;28;20041;-73
2022/04/01 14:06:47;;;;;;;8.00;2.45;;;;;;;;;;5023894;28;20060;-72
2022/04/01 14:09:13;;;;;;;7.47;3.35;;;;;;;;;;5025333;28;20045;-73
2022/04/01 14:11:39;;;;;;;4.43;2.25;;;;;;;;;;5026375;28;20030;-75
2022/04/01 14:14:06;;;;;;;4.78;2.50;;;;;;;;;;5019892;28;20142;-74
2022/04/01 14:16:35;;;;;;;5.55;2.72;;;;;;;;;;5025356;28;20026;-74
2022/04/01 14:19:05;;;;;;;9.35;1.98;;;;;;;;;;5025062;28;20036;-75
2022/04/01 14:21:31;;;;;;;5.85;2.50;;;;;;;;;;5029294;28;20029;-74
2022/04/01 14:23:57;;;;;;;8.40;2.72;;;;;;;;;;5028286;28;20033;-74
2022/04/01 14:26:24;;;;;;;6.10;2.53;;;;;;;;;;5020175;28;20037;-73
2022/04/01 14:28:50;;;;;;;8.68;3.00;;;;;;;;;;5023808;28;20040;-72
2022/04/01 14:31:17;;;;;;;6.78;3.67;;;;;;;;;;5022192;28;20029;-73
2022/04/01 14:33:43;;;;;;;5.30;3.10;;;;;;;;;;5024435;28;20053;-73
2022/04/01 14:36:09;;;;;;;9.63;4.05;;;;;;;;;;5020751;28;20022;-73
2022/04/01 14:38:36;;;;;;;10.68;4.30;;;;;;;;;;5028215;28;20034;-74
2022/04/01 14:41:02;;;;;;;8.77;3.17;;;;;;;;;;5027284;28;20030;-72
2022/04/01 14:43:28;;;;;;;5.07;2.25;;;;;;;;;;5021359;28;20628;-73
2022/04/01 14:45:54;;;;;;;9.07;3.70;;;;;;;;;;5024424;28;20053;-73
2022/04/01 14:48:20;;;;;;;4.45;2.40;;;;;;;;;;5020081;28;20737;-74
2022/04/01 14:50:46;;;;;;;5.22;2.40;;;;;;;;;;5020665;28;20514;-72
2022/04/01 14:53:12;;;;;;;4.30;2.30;;;;;;;;;;5023831;28;20030;-73
2022/04/01 14:55:39;;;;;;;5.72;2.60;;;;;;;;;;5023899;28;20095;-71
2022/04/01 14:58:06;;;;;;;6.60;2.95;;;;;;;;;;5019656;28;20040;-73